sensor_id;sensor_type;location;lat;lon;timestamp;temperature;humidity
66422;DHT22;53228;51.380;0.098;2022-09-09T00:01:07;16.20;99.90
66422;DHT22;53228;51.380;0.098;2022-09-09T00:03:43;16.20;99.90
66422;DHT22;53228;51.380;0.098;2022-09-09T00:06:21;16.20;99.90
66422;DHT22;53228;51.380;0.098;2022-09-09T00:11:43;16.20;99.90
66422;DHT22;53228;51.380;0.098;2022-09-09T00:17:14;16.30;99.90
66422;DHT22;53228;51.380;0.098;2022-09-09T00:22:20;16.20;99.90
66422;DHT22;53228;51.380;0.098;2022-09-09T00:24:53;16.20;99.90
66422;DHT22;53228;51.380;0.098;2022-09-09T00:27:32;16.10;99.90
66422;DHT22;53228;51.380;0.098;2022-09-09T00:32:48;16.10;99.90
66422;DHT22;53228;51.380;0.098;2022-09-09T00:35:27;16.10;99.90
66422;DHT22;53228;51.380;0.098;2022-09-09T00:38:00;16.10;99.90
66422;DHT22;53228;51.380;0.098;2022-09-09T00:40:34;16.10;99.90
66422;DHT22;53228;51.380;0.098;2022-09-09T00:43:25;16.10;99.90
66422;DHT22;53228;51.380;0.098;2022-09-09T00:48:31;16.10;99.90
66422;DHT22;53228;51.380;0.098;2022-09-09T00:59:51;16.00;99.90
66422;DHT22;53228;51.380;0.098;2022-09-09T01:02:27;16.00;99.90
66422;DHT22;53228;51.380;0.098;2022-09-09T01:05:11;15.90;99.90
66422;DHT22;53228;51.380;0.098;2022-09-09T01:07:44;15.90;99.90
66422;DHT22;53228;51.380;0.098;2022-09-09T01:10:36;15.90;99.90
66422;DHT22;53228;51.380;0.098;2022-09-09T01:13:14;15.90;99.90
66422;DHT22;53228;51.380;0.098;2022-09-09T01:15:44;15.80;99.90
66422;DHT22;53228;51.380;0.098;2022-09-09T01:18:17;15.90;99.90
66422;DHT22;53228;51.380;0.098;2022-09-09T01:28:45;15.90;99.90
66422;DHT22;53228;51.380;0.098;2022-09-09T01:31:20;15.90;99.90
66422;DHT22;53228;51.380;0.098;2022-09-09T01:33:49;15.90;99.90
66422;DHT22;53228;51.380;0.098;2022-09-09T01:36:42;15.90;99.90
66422;DHT22;53228;51.380;0.098;2022-09-09T01:39:11;16.00;99.90
66422;DHT22;53228;51.380;0.098;2022-09-09T01:41:40;16.00;99.90
66422;DHT22;53228;51.380;0.098;2022-09-09T01:44:11;16.00;99.90
66422;DHT22;53228;51.380;0.098;2022-09-09T01:46:43;16.00;99.90
66422;DHT22;53228;51.380;0.098;2022-09-09T01:49:16;16.00;99.90
66422;DHT22;53228;51.380;0.098;2022-09-09T01:51:50;16.10;99.90
66422;DHT22;53228;51.380;0.098;2022-09-09T01:54:27;16.10;99.90
66422;DHT22;53228;51.380;0.098;2022-09-09T01:59:58;16.10;99.90
66422;DHT22;53228;51.380;0.098;2022-09-09T02:02:36;16.10;99.90
66422;DHT22;53228;51.380;0.098;2022-09-09T02:08:17;16.10;99.90
66422;DHT22;53228;51.380;0.098;2022-09-09T02:10:59;16.20;99.90
66422;DHT22;53228;51.380;0.098;2022-09-09T02:13:39;16.20;99.90
66422;DHT22;53228;51.380;0.098;2022-09-09T02:21:42;16.20;99.90
66422;DHT22;53228;51.380;0.098;2022-09-09T02:24:13;16.20;99.90
66422;DHT22;53228;51.380;0.098;2022-09-09T02:26:51;16.20;99.90
66422;DHT22;53228;51.380;0.098;2022-09-09T02:29:25;16.20;99.90
66422;DHT22;53228;51.380;0.098;2022-09-09T02:31:57;16.20;99.90
66422;DHT22;53228;51.380;0.098;2022-09-09T02:34:32;16.20;99.90
66422;DHT22;53228;51.380;0.098;2022-09-09T02:37:04;16.20;99.90
66422;DHT22;53228;51.380;0.098;2022-09-09T02:39:33;16.20;99.90
66422;DHT22;53228;51.380;0.098;2022-09-09T02:42:03;16.20;99.90
66422;DHT22;53228;51.380;0.098;2022-09-09T02:44:32;16.10;99.90
66422;DHT22;53228;51.380;0.098;2022-09-09T02:52:33;16.00;99.90
66422;DHT22;53228;51.380;0.098;2022-09-09T02:58:11;16.00;99.90
66422;DHT22;53228;51.380;0.098;2022-09-09T03:00:41;16.00;99.90
66422;DHT22;53228;51.380;0.098;2022-09-09T03:03:09;16.00;99.90
66422;DHT22;53228;51.380;0.098;2022-09-09T03:05:38;16.00;99.90
66422;DHT22;53228;51.380;0.098;2022-09-09T03:08:06;16.00;99.90
66422;DHT22;53228;51.380;0.098;2022-09-09T03:10:34;16.00;99.90
66422;DHT22;53228;51.380;0.098;2022-09-09T03:13:03;16.00;99.90
66422;DHT22;53228;51.380;0.098;2022-09-09T03:15:36;16.00;99.90
66422;DHT22;53228;51.380;0.098;2022-09-09T03:18:06;16.00;99.90
66422;DHT22;53228;51.380;0.098;2022-09-09T03:20:34;16.00;99.90
66422;DHT22;53228;51.380;0.098;2022-09-09T03:23:01;16.00;99.90
66422;DHT22;53228;51.380;0.098;2022-09-09T03:25:29;16.00;99.90
66422;DHT22;53228;51.380;0.098;2022-09-09T03:27:57;16.00;99.90
66422;DHT22;53228;51.380;0.098;2022-09-09T03:30:26;16.00;99.90
66422;DHT22;53228;51.380;0.098;2022-09-09T03:32:56;16.00;99.90
66422;DHT22;53228;51.380;0.098;2022-09-09T03:35:29;16.00;99.90
66422;DHT22;53228;51.380;0.098;2022-09-09T03:37:57;15.90;99.90
66422;DHT22;53228;51.380;0.098;2022-09-09T03:40:26;16.00;99.90
66422;DHT22;53228;51.380;0.098;2022-09-09T03:47:49;16.00;99.90
66422;DHT22;53228;51.380;0.098;2022-09-09T03:50:17;16.00;99.90
66422;DHT22;53228;51.380;0.098;2022-09-09T03:52:47;16.00;99.90
66422;DHT22;53228;51.380;0.098;2022-09-09T03:55:20;16.00;99.90
66422;DHT22;53228;51.380;0.098;2022-09-09T03:57:48;16.20;99.90
66422;DHT22;53228;51.380;0.098;2022-09-09T04:00:16;16.00;99.90
66422;DHT22;53228;51.380;0.098;2022-09-09T04:02:48;16.00;99.90
66422;DHT22;53228;51.380;0.098;2022-09-09T04:05:17;16.10;99.90
66422;DHT22;53228;51.380;0.098;2022-09-09T04:07:47;16.00;99.90
66422;DHT22;53228;51.380;0.098;2022-09-09T04:10:14;16.10;99.90
66422;DHT22;53228;51.380;0.098;2022-09-09T04:12:43;16.10;99.90
66422;DHT22;53228;51.380;0.098;2022-09-09T04:15:16;16.10;99.90
66422;DHT22;53228;51.380;0.098;2022-09-09T04:17:46;16.10;99.90
66422;DHT22;53228;51.380;0.098;2022-09-09T04:20:14;16.10;99.90
66422;DHT22;53228;51.380;0.098;2022-09-09T04:22:42;16.10;99.90
66422;DHT22;53228;51.380;0.098;2022-09-09T04:25:09;16.10;99.90
66422;DHT22;53228;51.380;0.098;2022-09-09T04:27:37;16.20;99.90
66422;DHT22;53228;51.380;0.098;2022-09-09T04:30:06;16.00;99.90
66422;DHT22;53228;51.380;0.098;2022-09-09T04:32:35;16.10;99.90
66422;DHT22;53228;51.380;0.098;2022-09-09T04:35:05;16.10;99.90
66422;DHT22;53228;51.380;0.098;2022-09-09T04:37:34;16.10;99.90
66422;DHT22;53228;51.380;0.098;2022-09-09T04:40:02;16.10;99.90
66422;DHT22;53228;51.380;0.098;2022-09-09T04:42:35;16.10;99.90
66422;DHT22;53228;51.380;0.098;2022-09-09T04:45:04;16.10;99.90
66422;DHT22;53228;51.380;0.098;2022-09-09T04:47:33;16.10;99.90
66422;DHT22;53228;51.380;0.098;2022-09-09T04:50:03;16.10;99.90
66422;DHT22;53228;51.380;0.098;2022-09-09T04:52:34;16.10;99.90
66422;DHT22;53228;51.380;0.098;2022-09-09T05:00:01;16.00;99.90
66422;DHT22;53228;51.380;0.098;2022-09-09T05:02:37;16.00;99.90
66422;DHT22;53228;51.380;0.098;2022-09-09T05:05:06;16.00;99.90
66422;DHT22;53228;51.380;0.098;2022-09-09T05:07:35;15.90;99.90
66422;DHT22;53228;51.380;0.098;2022-09-09T05:10:04;16.00;99.90
66422;DHT22;53228;51.380;0.098;2022-09-09T05:12:34;15.90;99.90
66422;DHT22;53228;51.380;0.098;2022-09-09T05:15:02;15.90;99.90
66422;DHT22;53228;51.380;0.098;2022-09-09T05:19:59;15.90;99.90
66422;DHT22;53228;51.380;0.098;2022-09-09T05:22:27;16.00;99.90
66422;DHT22;53228;51.380;0.098;2022-09-09T05:24:55;15.90;99.90
66422;DHT22;53228;51.380;0.098;2022-09-09T05:27:25;15.90;99.90
66422;DHT22;53228;51.380;0.098;2022-09-09T05:29:53;16.00;99.90
66422;DHT22;53228;51.380;0.098;2022-09-09T05:32:23;15.90;99.90
66422;DHT22;53228;51.380;0.098;2022-09-09T05:34:51;16.00;99.90
66422;DHT22;53228;51.380;0.098;2022-09-09T05:37:19;15.90;99.90
66422;DHT22;53228;51.380;0.098;2022-09-09T05:39:47;16.00;99.90
66422;DHT22;53228;51.380;0.098;2022-09-09T05:42:17;16.00;99.90
66422;DHT22;53228;51.380;0.098;2022-09-09T05:44:44;16.00;99.90
66422;DHT22;53228;51.380;0.098;2022-09-09T05:47:12;16.00;99.90
66422;DHT22;53228;51.380;0.098;2022-09-09T05:49:41;16.00;99.90
66422;DHT22;53228;51.380;0.098;2022-09-09T05:52:09;16.00;99.90
66422;DHT22;53228;51.380;0.098;2022-09-09T05:54:37;16.00;99.90
66422;DHT22;53228;51.380;0.098;2022-09-09T05:59:33;16.00;99.90
66422;DHT22;53228;51.380;0.098;2022-09-09T06:02:02;16.00;99.90
66422;DHT22;53228;51.380;0.098;2022-09-09T06:04:35;16.00;99.90
66422;DHT22;53228;51.380;0.098;2022-09-09T06:07:05;16.10;99.90
66422;DHT22;53228;51.380;0.098;2022-09-09T06:09:33;16.30;99.90
66422;DHT22;53228;51.380;0.098;2022-09-09T06:14:33;16.00;99.90
66422;DHT22;53228;51.380;0.098;2022-09-09T06:17:02;16.00;99.90
66422;DHT22;53228;51.380;0.098;2022-09-09T06:19:30;16.00;99.90
66422;DHT22;53228;51.380;0.098;2022-09-09T06:22:00;16.00;99.90
66422;DHT22;53228;51.380;0.098;2022-09-09T06:27:00;16.00;99.90
66422;DHT22;53228;51.380;0.098;2022-09-09T06:32:02;16.10;99.90
66422;DHT22;53228;51.380;0.098;2022-09-09T06:37:00;16.20;99.90
66422;DHT22;53228;51.380;0.098;2022-09-09T06:39:37;16.20;99.90
66422;DHT22;53228;51.380;0.098;2022-09-09T06:42:05;16.30;99.90
66422;DHT22;53228;51.380;0.098;2022-09-09T06:44:51;16.30;99.90
66422;DHT22;53228;51.380;0.098;2022-09-09T06:47:43;16.20;99.90
66422;DHT22;53228;51.380;0.098;2022-09-09T06:50:11;16.20;99.90
66422;DHT22;53228;51.380;0.098;2022-09-09T06:52:39;16.20;99.90
66422;DHT22;53228;51.380;0.098;2022-09-09T06:55:09;16.30;99.90
66422;DHT22;53228;51.380;0.098;2022-09-09T06:57:37;16.60;99.90
66422;DHT22;53228;51.380;0.098;2022-09-09T07:00:11;16.50;99.90
66422;DHT22;53228;51.380;0.098;2022-09-09T07:02:41;16.60;99.90
66422;DHT22;53228;51.380;0.098;2022-09-09T07:05:10;17.10;99.90
66422;DHT22;53228;51.380;0.098;2022-09-09T07:07:40;16.60;99.90
66422;DHT22;53228;51.380;0.098;2022-09-09T07:10:10;16.70;99.90
66422;DHT22;53228;51.380;0.098;2022-09-09T07:15:09;16.70;99.90
66422;DHT22;53228;51.380;0.098;2022-09-09T07:17:41;16.70;99.90
66422;DHT22;53228;51.380;0.098;2022-09-09T07:20:08;16.70;99.90
66422;DHT22;53228;51.380;0.098;2022-09-09T07:22:36;16.70;99.90
66422;DHT22;53228;51.380;0.098;2022-09-09T07:25:04;16.80;99.90
66422;DHT22;53228;51.380;0.098;2022-09-09T07:30:01;16.80;99.90
66422;DHT22;53228;51.380;0.098;2022-09-09T07:32:32;16.90;99.90
66422;DHT22;53228;51.380;0.098;2022-09-09T07:35:00;16.90;99.90
66422;DHT22;53228;51.380;0.098;2022-09-09T07:37:28;16.90;99.90
66422;DHT22;53228;51.380;0.098;2022-09-09T07:39:56;16.90;99.90
66422;DHT22;53228;51.380;0.098;2022-09-09T07:42:24;16.90;99.90
66422;DHT22;53228;51.380;0.098;2022-09-09T07:44:53;16.90;99.90
66422;DHT22;53228;51.380;0.098;2022-09-09T07:47:22;16.90;99.90
66422;DHT22;53228;51.380;0.098;2022-09-09T07:49:52;16.90;99.90
66422;DHT22;53228;51.380;0.098;2022-09-09T07:52:25;17.00;99.90
66422;DHT22;53228;51.380;0.098;2022-09-09T07:54:56;17.00;99.90
66422;DHT22;53228;51.380;0.098;2022-09-09T07:57:24;17.00;99.90
66422;DHT22;53228;51.380;0.098;2022-09-09T07:59:54;17.00;99.90
66422;DHT22;53228;51.380;0.098;2022-09-09T08:02:23;16.90;99.90
66422;DHT22;53228;51.380;0.098;2022-09-09T08:04:50;17.10;99.90
66422;DHT22;53228;51.380;0.098;2022-09-09T08:07:20;17.10;99.90
66422;DHT22;53228;51.380;0.098;2022-09-09T08:09:53;17.10;99.90
66422;DHT22;53228;51.380;0.098;2022-09-09T08:12:27;17.10;99.90
66422;DHT22;53228;51.380;0.098;2022-09-09T08:14:56;17.10;99.90
66422;DHT22;53228;51.380;0.098;2022-09-09T08:17:28;17.10;99.90
66422;DHT22;53228;51.380;0.098;2022-09-09T08:19:58;17.10;99.90
66422;DHT22;53228;51.380;0.098;2022-09-09T08:22:33;17.20;99.90
66422;DHT22;53228;51.380;0.098;2022-09-09T08:25:01;17.30;99.90
66422;DHT22;53228;51.380;0.098;2022-09-09T08:27:31;17.30;99.90
66422;DHT22;53228;51.380;0.098;2022-09-09T08:29:59;17.40;99.90
66422;DHT22;53228;51.380;0.098;2022-09-09T08:32:29;17.40;99.90
66422;DHT22;53228;51.380;0.098;2022-09-09T08:34:58;17.50;99.90
66422;DHT22;53228;51.380;0.098;2022-09-09T08:37:34;17.60;99.90
66422;DHT22;53228;51.380;0.098;2022-09-09T08:40:04;17.70;99.90
66422;DHT22;53228;51.380;0.098;2022-09-09T08:42:48;17.80;99.90
66422;DHT22;53228;51.380;0.098;2022-09-09T08:50:34;17.90;99.90
66422;DHT22;53228;51.380;0.098;2022-09-09T08:53:19;17.90;99.90
66422;DHT22;53228;51.380;0.098;2022-09-09T08:55:59;18.10;99.90
66422;DHT22;53228;51.380;0.098;2022-09-09T08:58:53;18.10;99.90
66422;DHT22;53228;51.380;0.098;2022-09-09T09:05:00;18.40;99.90
66422;DHT22;53228;51.380;0.098;2022-09-09T09:07:50;18.30;99.90
66422;DHT22;53228;51.380;0.098;2022-09-09T09:13:23;18.30;99.90
66422;DHT22;53228;51.380;0.098;2022-09-09T09:16:02;18.20;99.90
66422;DHT22;53228;51.380;0.098;2022-09-09T09:21:16;18.00;99.90
66422;DHT22;53228;51.380;0.098;2022-09-09T09:23:57;17.90;99.90
66422;DHT22;53228;51.380;0.098;2022-09-09T09:26:34;17.80;99.90
66422;DHT22;53228;51.380;0.098;2022-09-09T09:29:15;17.70;99.90
66422;DHT22;53228;51.380;0.098;2022-09-09T09:31:52;17.70;99.90
66422;DHT22;53228;51.380;0.098;2022-09-09T09:34:24;17.70;99.90
66422;DHT22;53228;51.380;0.098;2022-09-09T09:36:58;17.70;99.90
66422;DHT22;53228;51.380;0.098;2022-09-09T09:39:32;17.70;99.90
66422;DHT22;53228;51.380;0.098;2022-09-09T09:42:26;17.80;99.90
66422;DHT22;53228;51.380;0.098;2022-09-09T09:44:56;17.80;99.90
66422;DHT22;53228;51.380;0.098;2022-09-09T09:47:34;17.90;99.90
66422;DHT22;53228;51.380;0.098;2022-09-09T09:50:18;18.00;99.90
66422;DHT22;53228;51.380;0.098;2022-09-09T09:52:56;18.20;99.90
66422;DHT22;53228;51.380;0.098;2022-09-09T09:55:26;18.20;99.90
66422;DHT22;53228;51.380;0.098;2022-09-09T09:58:13;18.60;99.90
66422;DHT22;53228;51.380;0.098;2022-09-09T10:00:50;18.70;99.90
66422;DHT22;53228;51.380;0.098;2022-09-09T10:03:29;18.70;99.90
66422;DHT22;53228;51.380;0.098;2022-09-09T10:05:58;18.80;99.90
66422;DHT22;53228;51.380;0.098;2022-09-09T10:08:26;18.90;99.90
66422;DHT22;53228;51.380;0.098;2022-09-09T10:19:13;19.00;99.90
66422;DHT22;53228;51.380;0.098;2022-09-09T10:28:28;18.90;99.90
66422;DHT22;53228;51.380;0.098;2022-09-09T10:31:12;18.90;99.90
66422;DHT22;53228;51.380;0.098;2022-09-09T10:36:27;19.20;99.90
66422;DHT22;53228;51.380;0.098;2022-09-09T10:39:05;19.20;99.90
66422;DHT22;53228;51.380;0.098;2022-09-09T10:44:24;19.30;99.90
66422;DHT22;53228;51.380;0.098;2022-09-09T10:47:17;19.30;99.90
66422;DHT22;53228;51.380;0.098;2022-09-09T10:52:39;19.10;99.90
66422;DHT22;53228;51.380;0.098;2022-09-09T10:55:13;19.10;99.90
66422;DHT22;53228;51.380;0.098;2022-09-09T10:57:46;19.10;99.90
66422;DHT22;53228;51.380;0.098;2022-09-09T11:00:42;19.10;99.90
66422;DHT22;53228;51.380;0.098;2022-09-09T11:03:22;19.20;99.90
66422;DHT22;53228;51.380;0.098;2022-09-09T11:06:06;19.20;99.90
66422;DHT22;53228;51.380;0.098;2022-09-09T11:08:38;19.30;99.90
66422;DHT22;53228;51.380;0.098;2022-09-09T11:19:39;18.90;99.90
66422;DHT22;53228;51.380;0.098;2022-09-09T11:30:43;18.70;99.90
66422;DHT22;53228;51.380;0.098;2022-09-09T11:38:55;19.00;99.90
66422;DHT22;53228;51.380;0.098;2022-09-09T11:41:33;19.10;99.90
66422;DHT22;53228;51.380;0.098;2022-09-09T11:44:10;19.10;99.90
66422;DHT22;53228;51.380;0.098;2022-09-09T11:46:39;19.00;99.90
66422;DHT22;53228;51.380;0.098;2022-09-09T11:49:28;18.90;99.90
66422;DHT22;53228;51.380;0.098;2022-09-09T11:51:57;18.80;99.90
66422;DHT22;53228;51.380;0.098;2022-09-09T11:54:32;18.70;99.90
66422;DHT22;53228;51.380;0.098;2022-09-09T11:57:02;18.60;99.90
66422;DHT22;53228;51.380;0.098;2022-09-09T11:59:32;18.60;99.90
66422;DHT22;53228;51.380;0.098;2022-09-09T12:02:03;18.70;99.90
66422;DHT22;53228;51.380;0.098;2022-09-09T12:04:40;18.80;99.90
66422;DHT22;53228;51.380;0.098;2022-09-09T12:07:38;18.80;99.90
66422;DHT22;53228;51.380;0.098;2022-09-09T12:10:29;18.80;99.90
66422;DHT22;53228;51.380;0.098;2022-09-09T12:15:50;19.20;99.90
66422;DHT22;53228;51.380;0.098;2022-09-09T12:18:38;19.10;99.90
66422;DHT22;53228;51.380;0.098;2022-09-09T12:24:11;19.40;99.90
66422;DHT22;53228;51.380;0.098;2022-09-09T12:26:50;19.30;99.90
66422;DHT22;53228;51.380;0.098;2022-09-09T12:29:45;19.30;99.90
66422;DHT22;53228;51.380;0.098;2022-09-09T12:32:22;19.20;99.90
66422;DHT22;53228;51.380;0.098;2022-09-09T12:37:41;19.30;99.90
66422;DHT22;53228;51.380;0.098;2022-09-09T12:40:31;19.40;99.90
66422;DHT22;53228;51.380;0.098;2022-09-09T12:43:20;19.60;99.90
66422;DHT22;53228;51.380;0.098;2022-09-09T12:45:51;19.80;99.90
66422;DHT22;53228;51.380;0.098;2022-09-09T12:48:33;19.90;99.90
66422;DHT22;53228;51.380;0.098;2022-09-09T12:51:02;20.10;99.90
66422;DHT22;53228;51.380;0.098;2022-09-09T12:53:35;20.40;99.90
66422;DHT22;53228;51.380;0.098;2022-09-09T12:56:09;20.50;99.90
66422;DHT22;53228;51.380;0.098;2022-09-09T12:58:38;20.60;99.90
66422;DHT22;53228;51.380;0.098;2022-09-09T13:01:17;20.70;99.90
66422;DHT22;53228;51.380;0.098;2022-09-09T13:03:46;20.80;99.90
66422;DHT22;53228;51.380;0.098;2022-09-09T13:06:21;20.70;99.90
66422;DHT22;53228;51.380;0.098;2022-09-09T13:08:57;20.60;99.90
66422;DHT22;53228;51.380;0.098;2022-09-09T13:11:38;20.50;99.90
66422;DHT22;53228;51.380;0.098;2022-09-09T13:14:12;20.50;99.90
66422;DHT22;53228;51.380;0.098;2022-09-09T13:16:41;20.40;99.90
66422;DHT22;53228;51.380;0.098;2022-09-09T13:19:16;20.70;99.90
66422;DHT22;53228;51.380;0.098;2022-09-09T13:21:44;20.30;99.90
66422;DHT22;53228;51.380;0.098;2022-09-09T13:24:33;20.30;99.90
66422;DHT22;53228;51.380;0.098;2022-09-09T13:27:21;20.50;99.90
66422;DHT22;53228;51.380;0.098;2022-09-09T13:29:52;20.50;99.90
66422;DHT22;53228;51.380;0.098;2022-09-09T13:32:25;20.70;99.90
66422;DHT22;53228;51.380;0.098;2022-09-09T13:34:58;20.70;99.90
66422;DHT22;53228;51.380;0.098;2022-09-09T13:39:57;21.00;99.90
66422;DHT22;53228;51.380;0.098;2022-09-09T13:42:27;21.10;99.90
66422;DHT22;53228;51.380;0.098;2022-09-09T13:44:56;21.20;99.90
66422;DHT22;53228;51.380;0.098;2022-09-09T13:47:36;21.30;99.90
66422;DHT22;53228;51.380;0.098;2022-09-09T14:00:23;21.30;99.90
66422;DHT22;53228;51.380;0.098;2022-09-09T14:07:48;21.10;99.90
66422;DHT22;53228;51.380;0.098;2022-09-09T14:10:20;21.10;99.90
66422;DHT22;53228;51.380;0.098;2022-09-09T14:12:48;21.20;99.90
66422;DHT22;53228;51.380;0.098;2022-09-09T14:15:16;21.20;99.90
66422;DHT22;53228;51.380;0.098;2022-09-09T14:17:43;21.30;99.90
66422;DHT22;53228;51.380;0.098;2022-09-09T14:20:11;21.60;99.90
66422;DHT22;53228;51.380;0.098;2022-09-09T14:22:42;21.70;99.90
66422;DHT22;53228;51.380;0.098;2022-09-09T14:25:11;21.70;99.90
66422;DHT22;53228;51.380;0.098;2022-09-09T14:27:42;21.60;99.90
66422;DHT22;53228;51.380;0.098;2022-09-09T14:30:13;21.70;99.90
66422;DHT22;53228;51.380;0.098;2022-09-09T14:32:40;21.60;99.90
66422;DHT22;53228;51.380;0.098;2022-09-09T14:35:08;21.60;99.90
66422;DHT22;53228;51.380;0.098;2022-09-09T14:37:36;21.60;99.90
66422;DHT22;53228;51.380;0.098;2022-09-09T14:40:04;21.60;99.90
66422;DHT22;53228;51.380;0.098;2022-09-09T14:42:36;21.60;99.90
66422;DHT22;53228;51.380;0.098;2022-09-09T14:45:06;21.70;99.90
66422;DHT22;53228;51.380;0.098;2022-09-09T14:47:34;22.20;99.90
66422;DHT22;53228;51.380;0.098;2022-09-09T14:50:02;22.70;99.90
66422;DHT22;53228;51.380;0.098;2022-09-09T14:52:31;22.80;99.90
66422;DHT22;53228;51.380;0.098;2022-09-09T14:54:58;22.70;99.90
66422;DHT22;53228;51.380;0.098;2022-09-09T14:57:27;22.50;99.90
66422;DHT22;53228;51.380;0.098;2022-09-09T14:59:55;22.20;99.90
66422;DHT22;53228;51.380;0.098;2022-09-09T15:02:24;21.90;99.90
66422;DHT22;53228;51.380;0.098;2022-09-09T15:04:51;21.40;99.90
66422;DHT22;53228;51.380;0.098;2022-09-09T15:07:20;21.40;99.90
66422;DHT22;53228;51.380;0.098;2022-09-09T15:09:49;21.10;99.90
66422;DHT22;53228;51.380;0.098;2022-09-09T15:12:16;20.80;99.90
66422;DHT22;53228;51.380;0.098;2022-09-09T15:14:46;20.70;99.90
66422;DHT22;53228;51.380;0.098;2022-09-09T15:17:14;20.50;99.90
66422;DHT22;53228;51.380;0.098;2022-09-09T15:19:42;20.40;99.90
66422;DHT22;53228;51.380;0.098;2022-09-09T15:22:09;20.40;99.90
66422;DHT22;53228;51.380;0.098;2022-09-09T15:24:37;20.30;99.90
66422;DHT22;53228;51.380;0.098;2022-09-09T15:27:05;20.20;99.90
66422;DHT22;53228;51.380;0.098;2022-09-09T15:29:33;20.30;99.90
66422;DHT22;53228;51.380;0.098;2022-09-09T15:32:01;20.10;99.90
66422;DHT22;53228;51.380;0.098;2022-09-09T15:34:29;20.10;99.90
66422;DHT22;53228;51.380;0.098;2022-09-09T15:36:57;20.10;99.90
66422;DHT22;53228;51.380;0.098;2022-09-09T15:39:27;20.00;99.90
66422;DHT22;53228;51.380;0.098;2022-09-09T15:41:55;20.00;99.90
66422;DHT22;53228;51.380;0.098;2022-09-09T15:44:24;19.80;99.90
66422;DHT22;53228;51.380;0.098;2022-09-09T15:46:53;20.00;99.90
66422;DHT22;53228;51.380;0.098;2022-09-09T15:49:25;19.90;99.90
66422;DHT22;53228;51.380;0.098;2022-09-09T15:51:55;19.90;99.90
66422;DHT22;53228;51.380;0.098;2022-09-09T15:54:25;19.80;99.90
66422;DHT22;53228;51.380;0.098;2022-09-09T15:56:59;19.80;99.90
66422;DHT22;53228;51.380;0.098;2022-09-09T15:59:29;19.70;99.90
66422;DHT22;53228;51.380;0.098;2022-09-09T16:01:58;19.50;99.90
66422;DHT22;53228;51.380;0.098;2022-09-09T16:04:28;19.50;99.90
66422;DHT22;53228;51.380;0.098;2022-09-09T16:07:02;19.20;99.90
66422;DHT22;53228;51.380;0.098;2022-09-09T16:09:31;19.20;99.90
66422;DHT22;53228;51.380;0.098;2022-09-09T16:12:01;18.80;99.90
66422;DHT22;53228;51.380;0.098;2022-09-09T16:14:30;18.80;99.90
66422;DHT22;53228;51.380;0.098;2022-09-09T16:17:03;18.60;99.90
66422;DHT22;53228;51.380;0.098;2022-09-09T16:19:31;18.40;99.90
66422;DHT22;53228;51.380;0.098;2022-09-09T16:21:59;18.20;99.90
66422;DHT22;53228;51.380;0.098;2022-09-09T16:24:27;17.80;99.90
66422;DHT22;53228;51.380;0.098;2022-09-09T16:26:56;17.40;99.90
66422;DHT22;53228;51.380;0.098;2022-09-09T16:29:23;17.10;99.90
66422;DHT22;53228;51.380;0.098;2022-09-09T16:31:54;17.00;99.90
66422;DHT22;53228;51.380;0.098;2022-09-09T16:34:29;16.90;99.90
66422;DHT22;53228;51.380;0.098;2022-09-09T16:36:57;16.90;99.90
66422;DHT22;53228;51.380;0.098;2022-09-09T16:39:24;17.00;99.90
66422;DHT22;53228;51.380;0.098;2022-09-09T16:41:53;17.10;99.90
66422;DHT22;53228;51.380;0.098;2022-09-09T16:44:20;17.10;99.90
66422;DHT22;53228;51.380;0.098;2022-09-09T16:46:48;17.20;99.90
66422;DHT22;53228;51.380;0.098;2022-09-09T16:49:24;17.30;99.90
66422;DHT22;53228;51.380;0.098;2022-09-09T16:51:51;17.40;99.90
66422;DHT22;53228;51.380;0.098;2022-09-09T16:54:22;17.40;99.90
66422;DHT22;53228;51.380;0.098;2022-09-09T16:56:50;17.40;99.90
66422;DHT22;53228;51.380;0.098;2022-09-09T16:59:20;17.40;99.90
66422;DHT22;53228;51.380;0.098;2022-09-09T17:01:49;17.50;99.90
66422;DHT22;53228;51.380;0.098;2022-09-09T17:04:24;17.50;99.90
66422;DHT22;53228;51.380;0.098;2022-09-09T17:06:53;17.60;99.90
66422;DHT22;53228;51.380;0.098;2022-09-09T17:09:23;17.60;99.90
66422;DHT22;53228;51.380;0.098;2022-09-09T17:11:51;17.60;99.90
66422;DHT22;53228;51.380;0.098;2022-09-09T17:14:21;17.60;99.90
66422;DHT22;53228;51.380;0.098;2022-09-09T17:16:50;17.60;99.90
66422;DHT22;53228;51.380;0.098;2022-09-09T17:19:17;17.70;99.90
66422;DHT22;53228;51.380;0.098;2022-09-09T17:21:45;17.60;99.90
66422;DHT22;53228;51.380;0.098;2022-09-09T17:24:35;17.70;99.90
66422;DHT22;53228;51.380;0.098;2022-09-09T17:27:06;17.80;99.90
66422;DHT22;53228;51.380;0.098;2022-09-09T17:29:33;17.80;99.90
66422;DHT22;53228;51.380;0.098;2022-09-09T17:32:03;17.80;99.90
66422;DHT22;53228;51.380;0.098;2022-09-09T17:34:33;17.80;99.90
66422;DHT22;53228;51.380;0.098;2022-09-09T17:37:01;17.80;99.90
66422;DHT22;53228;51.380;0.098;2022-09-09T17:39:29;17.80;99.90
66422;DHT22;53228;51.380;0.098;2022-09-09T17:41:57;17.70;99.90
66422;DHT22;53228;51.380;0.098;2022-09-09T17:44:24;17.70;99.90
66422;DHT22;53228;51.380;0.098;2022-09-09T17:46:52;15.70;99.90
66422;DHT22;53228;51.380;0.098;2022-09-09T17:49:19;17.60;99.90
66422;DHT22;53228;51.380;0.098;2022-09-09T17:51:47;17.60;99.90
66422;DHT22;53228;51.380;0.098;2022-09-09T17:54:17;17.50;99.90
66422;DHT22;53228;51.380;0.098;2022-09-09T17:56:46;17.40;99.90
66422;DHT22;53228;51.380;0.098;2022-09-09T17:59:17;17.40;99.90
66422;DHT22;53228;51.380;0.098;2022-09-09T18:01:47;17.40;99.90
66422;DHT22;53228;51.380;0.098;2022-09-09T18:04:17;17.30;99.90
66422;DHT22;53228;51.380;0.098;2022-09-09T18:06:50;17.30;99.90
66422;DHT22;53228;51.380;0.098;2022-09-09T18:09:20;17.30;99.90
66422;DHT22;53228;51.380;0.098;2022-09-09T18:11:51;17.30;99.90
66422;DHT22;53228;51.380;0.098;2022-09-09T18:14:27;17.30;99.90
66422;DHT22;53228;51.380;0.098;2022-09-09T18:16:55;17.30;99.90
66422;DHT22;53228;51.380;0.098;2022-09-09T18:19:25;17.20;99.90
66422;DHT22;53228;51.380;0.098;2022-09-09T18:21:53;17.20;99.90
66422;DHT22;53228;51.380;0.098;2022-09-09T18:24:26;17.20;99.90
66422;DHT22;53228;51.380;0.098;2022-09-09T18:26:54;17.10;99.90
66422;DHT22;53228;51.380;0.098;2022-09-09T18:29:23;17.10;99.90
66422;DHT22;53228;51.380;0.098;2022-09-09T18:31:54;16.90;99.90
66422;DHT22;53228;51.380;0.098;2022-09-09T18:34:22;16.90;99.90
66422;DHT22;53228;51.380;0.098;2022-09-09T18:36:53;16.90;99.90
66422;DHT22;53228;51.380;0.098;2022-09-09T18:39:24;16.90;99.90
66422;DHT22;53228;51.380;0.098;2022-09-09T18:41:55;16.80;99.90
66422;DHT22;53228;51.380;0.098;2022-09-09T18:44:27;16.80;99.90
66422;DHT22;53228;51.380;0.098;2022-09-09T18:46:56;16.60;99.90